Terminal Aerodrome Forecast
Issued by NWS Albany, NY

Home | Current Version | Previous Version | Text Only | Print | Product List | Glossary On
Versions: 1 2 3 4 5 6 7 8 9 10 11 12 13 14
849
FTUS41 KALY 230520
TAFALB
TAF
KALB 230520Z 2306/2406 VRB03KT P6SM BKN150
     FM230900 01004KT P6SM FEW025 BKN150
     FM231700 10007KT P6SM FEW050 BKN120 PROB30 2403/2406 4SM -SHRA
      BR BKN025 OVC040=

USA.gov is the U.S. government's official web portal to all federal, state and local government web resources and services.